Time;durP1;ratioP1;P1;durP2;ratioP2;P2;SDS_P1;SDS_P2;PMS_P1;PMS_P2;Temp;Humidity;BMP_temperature;BMP_pressure;BME280_temperature;BME280_humidity;BME280_pressure;Samples;Min_cycle;Max_cycle;Signal;HPM_P1;HPM_P2
2022/11/15 00:00:57;;;;;;;12.02;8.77;;;21.00;49.40;;;;;;5011050;28;20045;-65
2022/11/15 00:03:27;;;;;;;13.63;10.13;;;21.00;49.40;;;;;;5011329;28;20425;-65
2022/11/15 00:05:54;;;;;;;11.88;8.73;;;21.00;49.40;;;;;;5011238;28;20053;-64
2022/11/15 00:08:21;;;;;;;13.02;9.45;;;21.00;49.40;;;;;;5010700;28;20081;-64
2022/11/15 00:10:59;;;;;;;12.68;8.82;;;21.00;49.40;;;;;;5008698;28;20446;-64
2022/11/15 00:13:27;;;;;;;12.02;8.95;;;20.90;49.30;;;;;;5010107;28;20222;-64
2022/11/15 00:15:58;;;;;;;10.68;8.55;;;20.90;49.30;;;;;;5009758;28;20100;-64
2022/11/15 00:18:26;;;;;;;12.07;9.20;;;21.00;49.30;;;;;;5008821;28;20046;-64
2022/11/15 00:20:53;;;;;;;14.23;9.30;;;21.00;49.40;;;;;;5009526;28;20046;-65
2022/11/15 00:23:20;;;;;;;15.25;9.98;;;21.00;49.30;;;;;;5008667;28;20415;-64
2022/11/15 00:25:47;;;;;;;11.43;8.52;;;20.90;49.30;;;;;;5009003;28;20510;-65
2022/11/15 00:28:14;;;;;;;13.18;8.98;;;20.90;49.30;;;;;;5004911;28;20046;-65
2022/11/15 00:30:41;;;;;;;11.32;8.68;;;20.90;49.30;;;;;;5009727;28;20407;-64
2022/11/15 00:33:09;;;;;;;12.98;9.00;;;20.90;49.30;;;;;;5009616;28;20050;-64
2022/11/15 00:35:36;;;;;;;13.23;8.95;;;20.90;49.30;;;;;;5009196;28;20046;-64
2022/11/15 00:38:03;;;;;;;12.85;9.75;;;20.90;49.30;;;;;;5009610;28;20042;-64
2022/11/15 00:40:30;;;;;;;11.77;8.60;;;21.00;49.30;;;;;;5008372;28;20042;-64
2022/11/15 00:42:57;;;;;;;10.07;8.20;;;20.90;49.20;;;;;;5009544;28;20404;-65
2022/11/15 00:45:24;;;;;;;11.05;8.45;;;20.90;49.20;;;;;;5009905;28;20342;-64
2022/11/15 00:47:52;;;;;;;12.10;8.63;;;20.90;49.20;;;;;;5008298;28;20288;-65
2022/11/15 00:50:19;;;;;;;12.30;8.77;;;20.90;49.20;;;;;;5009639;28;20507;-64
2022/11/15 00:52:46;;;;;;;11.48;8.18;;;20.90;49.20;;;;;;5009135;28;20488;-65
2022/11/15 00:55:15;;;;;;;11.52;8.10;;;20.90;49.20;;;;;;5009575;28;20046;-64
2022/11/15 00:57:43;;;;;;;12.07;8.95;;;20.90;49.20;;;;;;5009489;28;20057;-64
2022/11/15 01:00:11;;;;;;;12.38;9.13;;;20.90;49.20;;;;;;5004268;28;20042;-64
2022/11/15 01:02:38;;;;;;;11.80;8.73;;;20.90;49.20;;;;;;5009230;28;20060;-64
2022/11/15 01:05:06;;;;;;;11.80;8.55;;;20.90;49.20;;;;;;5008550;28;20531;-64
2022/11/15 01:07:33;;;;;;;9.43;7.72;;;20.90;49.20;;;;;;5009015;28;20054;-64
2022/11/15 01:10:00;;;;;;;11.93;8.60;;;20.90;49.20;;;;;;4965622;28;1281181;-64
2022/11/15 01:12:27;;;;;;;11.82;8.40;;;20.90;49.20;;;;;;5009741;28;20126;-64
2022/11/15 01:14:54;;;;;;;12.32;8.93;;;20.90;49.70;;;;;;5010331;28;20104;-64
2022/11/15 01:17:21;;;;;;;12.10;8.13;;;20.90;49.20;;;;;;5009370;28;20046;-64
2022/11/15 01:19:49;;;;;;;11.73;8.82;;;20.90;49.20;;;;;;5009208;28;20050;-64
2022/11/15 01:22:16;;;;;;;11.25;8.65;;;20.90;49.20;;;;;;5009222;28;20416;-64
2022/11/15 01:24:43;;;;;;;10.48;7.68;;;20.90;49.20;;;;;;5009296;28;20049;-64
2022/11/15 01:27:10;;;;;;;11.20;8.10;;;20.90;49.20;;;;;;5009283;28;20057;-64
2022/11/15 01:29:37;;;;;;;10.50;7.75;;;20.90;49.20;;;;;;5008779;28;20654;-64
2022/11/15 01:32:04;;;;;;;10.63;8.32;;;20.90;49.20;;;;;;5022577;28;20041;-64
2022/11/15 01:34:31;;;;;;;10.32;8.32;;;20.90;49.20;;;;;;5028840;28;20222;-64
2022/11/15 01:36:58;;;;;;;11.68;8.90;;;20.80;49.20;;;;;;5028886;28;20049;-65
2022/11/15 01:39:26;;;;;;;10.45;7.28;;;20.90;49.20;;;;;;5029266;28;20477;-64
2022/11/15 01:41:53;;;;;;;11.52;8.27;;;20.80;49.20;;;;;;5028183;28;20434;-66
2022/11/15 01:44:42;;;;;;;10.95;8.32;;;20.90;49.20;;;;;;5029386;28;20064;-64
2022/11/15 01:47:23;;;;;;;10.15;7.93;;;20.90;49.20;;;;;;5011064;28;20053;-64
2022/11/15 01:50:00;;;;;;;11.70;8.32;;;20.90;49.30;;;;;;5028685;28;20053;-64
2022/11/15 01:52:30;;;;;;;12.15;8.00;;;20.90;49.30;;;;;;5028398;28;20513;-65
2022/11/15 01:55:13;;;;;;;;;;;20.90;49.20;;;;;;5012270;28;20045;-65
2022/11/15 01:57:42;;;;;;;11.80;7.85;;;20.90;49.20;;;;;;5028737;28;19924;-64
2022/11/15 02:00:10;;;;;;;10.82;7.95;;;20.90;49.20;;;;;;5027678;28;20048;-65
2022/11/15 02:02:37;;;;;;;10.35;7.25;;;20.90;49.20;;;;;;5024689;28;20041;-65
2022/11/15 02:05:05;;;;;;;11.82;8.55;;;20.90;49.20;;;;;;5003695;28;20041;-65
2022/11/15 02:07:35;;;;;;;12.25;8.10;;;20.90;49.20;;;;;;5008368;28;20092;-65
2022/11/15 02:10:08;;;;;;;10.18;7.32;;;20.90;49.20;;;;;;5008493;28;20046;-65
2022/11/15 02:12:36;;;;;;;10.07;7.75;;;20.90;49.10;;;;;;5008697;28;20076;-64
2022/11/15 02:15:06;;;;;;;8.73;6.75;;;20.90;49.10;;;;;;5008845;28;20065;-65
2022/11/15 02:18:10;;;;;;;10.90;7.30;;;20.90;49.70;;;;;;5008390;28;20042;-64
2022/11/15 02:21:00;;;;;;;10.77;7.72;;;20.90;49.10;;;;;;5008720;28;20053;-64
2022/11/15 02:23:53;;;;;;;11.18;8.55;;;20.90;49.10;;;;;;5012058;28;20399;-64
2022/11/15 02:26:52;;;;;;;10.00;7.30;;;20.90;49.10;;;;;;5028298;28;20051;-64
2022/11/15 02:29:49;;;;;;;10.50;7.57;;;20.90;49.10;;;;;;5043387;28;20072;-64
2022/11/15 02:32:40;;;;;;;11.00;8.32;;;20.90;49.10;;;;;;5027963;28;20049;-64
2022/11/15 02:35:30;;;;;;;9.27;7.35;;;20.80;49.00;;;;;;5027085;28;20049;-65
2022/11/15 02:38:03;;;;;;;11.52;7.82;;;20.80;49.00;;;;;;5026408;28;20053;-64
2022/11/15 02:40:49;;;;;;;7.97;6.38;;;20.90;49.10;;;;;;5028156;28;20128;-64
2022/11/15 02:46:21;;;;;;;11.55;8.25;;;20.80;49.00;;;;;;5031216;28;20060;-64
2022/11/15 02:48:49;;;;;;;10.80;7.65;;;20.80;49.00;;;;;;5031956;28;20049;-64
2022/11/15 02:51:16;;;;;;;10.77;7.93;;;20.90;49.00;;;;;;5032754;28;20434;-64
2022/11/15 02:53:43;;;;;;;12.18;7.95;;;20.80;49.00;;;;;;5014314;28;20391;-64
2022/11/15 02:56:12;;;;;;;9.98;7.10;;;20.80;49.00;;;;;;5032408;28;20045;-64
2022/11/15 02:59:07;;;;;;;9.30;7.28;;;20.80;49.00;;;;;;5031632;28;20057;-64
2022/11/15 03:02:10;;;;;;;10.05;7.28;;;20.80;49.00;;;;;;5031356;28;20136;-64
2022/11/15 03:05:07;;;;;;;11.10;7.82;;;20.90;49.00;;;;;;5031839;28;20050;-64
2022/11/15 03:08:00;;;;;;;7.85;6.45;;;20.80;49.00;;;;;;5026963;28;20475;-64
2022/11/15 03:10:46;;;;;;;8.45;6.85;;;20.80;49.00;;;;;;5022653;28;20096;-64
2022/11/15 03:13:27;;;;;;;10.13;7.43;;;20.80;49.00;;;;;;5010988;28;20534;-64
2022/11/15 03:16:06;;;;;;;8.68;6.97;;;20.80;49.00;;;;;;5012454;28;20054;-64
2022/11/15 03:18:38;;;;;;;8.60;6.60;;;20.80;49.00;;;;;;5011891;28;20574;-64
2022/11/15 03:21:09;;;;;;;9.88;7.22;;;20.80;49.00;;;;;;5011948;28;20053;-64
2022/11/15 03:23:38;;;;;;;10.18;7.50;;;20.80;49.00;;;;;;5011331;28;20046;-64
2022/11/15 03:26:09;;;;;;;8.38;6.60;;;20.80;49.00;;;;;;4994658;28;20058;-64
2022/11/15 03:28:53;;;;;;;9.45;7.00;;;20.80;49.00;;;;;;5011282;28;20408;-64
2022/11/15 03:34:29;;;;;;;8.40;6.93;;;20.80;49.00;;;;;;5011639;28;20061;-64
2022/11/15 03:36:56;;;;;;;9.70;7.38;;;20.80;49.00;;;;;;5011567;28;20054;-64
2022/11/15 03:39:24;;;;;;;7.53;6.15;;;20.80;49.00;;;;;;5007456;28;20488;-64
2022/11/15 03:42:15;;;;;;;8.07;6.38;;;20.80;49.00;;;;;;5010877;28;20042;-64
2022/11/15 03:45:07;;;;;;;8.80;6.00;;;20.80;48.90;;;;;;5011410;28;20054;-64
2022/11/15 03:47:53;;;;;;;9.93;6.80;;;20.80;48.90;;;;;;5011301;28;20041;-64
2022/11/15 03:50:22;;;;;;;8.27;6.22;;;20.80;48.90;;;;;;5010438;28;20463;-64
2022/11/15 03:52:50;;;;;;;8.95;6.70;;;20.80;48.90;;;;;;5011059;28;20049;-64
2022/11/15 03:55:19;;;;;;;7.88;6.20;;;20.80;49.00;;;;;;5011115;28;20061;-65
2022/11/15 03:57:51;;;;;;;8.15;6.03;;;20.80;49.00;;;;;;5010826;28;20046;-64
2022/11/15 04:00:18;;;;;;;7.55;6.00;;;20.80;49.00;;;;;;5010601;28;20049;-65
2022/11/15 04:02:45;;;;;;;9.15;7.03;;;20.80;49.00;;;;;;4994179;28;20077;-64
2022/11/15 04:05:12;;;;;;;8.50;6.80;;;20.80;49.00;;;;;;5010872;28;20042;-64
2022/11/15 04:07:39;;;;;;;8.98;7.10;;;20.80;49.00;;;;;;5011226;28;20073;-64
2022/11/15 04:10:08;;;;;;;8.45;6.40;;;20.80;49.00;;;;;;5011003;28;20479;-64
2022/11/15 04:12:40;;;;;;;8.35;6.60;;;20.80;49.00;;;;;;5006157;28;20416;-64
2022/11/15 04:15:11;;;;;;;8.18;6.22;;;20.80;49.00;;;;;;5010871;28;20444;-64
2022/11/15 04:17:42;;;;;;;8.02;5.80;;;20.80;49.00;;;;;;5011035;28;20050;-64
2022/11/15 04:25:59;;;;;;;8.43;6.68;;;20.80;48.90;;;;;;5010743;28;20056;-64
2022/11/15 04:28:26;;;;;;;8.18;6.60;;;20.80;48.90;;;;;;5010943;28;20431;-64
2022/11/15 04:30:54;;;;;;;7.85;5.88;;;20.80;48.90;;;;;;5010595;28;20042;-64
2022/11/15 04:33:21;;;;;;;7.80;6.15;;;20.80;48.80;;;;;;5020662;28;20053;-65
2022/11/15 04:38:36;;;;;;;7.90;5.90;;;20.80;48.80;;;;;;5031002;28;20049;-64
2022/11/15 04:41:03;;;;;;;8.13;6.13;;;20.80;48.80;;;;;;5029769;28;20672;-64
2022/11/15 04:43:30;;;;;;;7.57;6.25;;;20.80;48.80;;;;;;5028595;28;20410;-64
2022/11/15 04:45:58;;;;;;;9.05;6.45;;;20.80;48.80;;;;;;5027406;28;20042;-64
2022/11/15 04:48:25;;;;;;;7.28;5.72;;;20.80;48.80;;;;;;5022264;28;20454;-65
2022/11/15 04:50:52;;;;;;;8.25;6.28;;;20.80;48.80;;;;;;5020816;28;20081;-64
2022/11/15 04:53:19;;;;;;;6.90;5.75;;;20.80;48.70;;;;;;5018554;28;20065;-64
2022/11/15 04:55:47;;;;;;;8.18;6.10;;;20.80;48.70;;;;;;5001567;28;20040;-64
2022/11/15 04:58:14;;;;;;;8.02;5.93;;;20.80;48.80;;;;;;5019918;28;20533;-65
2022/11/15 05:00:41;;;;;;;8.07;6.43;;;20.80;48.80;;;;;;5001041;28;20060;-65
2022/11/15 05:05:58;;;;;;;8.65;5.93;;;20.80;48.70;;;;;;5028553;28;20050;-64
2022/11/15 05:08:25;;;;;;;7.43;5.47;;;20.80;48.70;;;;;;5028920;28;20045;-64
2022/11/15 05:10:52;;;;;;;8.05;6.05;;;20.80;48.70;;;;;;5029285;28;20049;-64
2022/11/15 05:13:19;;;;;;;7.75;6.15;;;20.80;48.70;;;;;;5028482;28;20340;-64
2022/11/15 05:15:47;;;;;;;7.32;5.78;;;20.80;48.70;;;;;;5027923;28;20045;-64
2022/11/15 05:18:14;;;;;;;7.45;5.88;;;20.80;48.80;;;;;;5026427;28;20049;-64
2022/11/15 05:20:48;;;;;;;7.75;5.72;;;20.80;48.70;;;;;;5029640;28;20068;-64
2022/11/15 05:23:16;;;;;;;7.57;6.45;;;20.80;48.70;;;;;;5028722;28;20045;-64
2022/11/15 05:25:43;;;;;;;7.15;5.40;;;20.80;48.70;;;;;;5029036;28;20260;-65
2022/11/15 05:28:10;;;;;;;6.72;5.80;;;20.80;48.70;;;;;;5027972;28;20250;-64
2022/11/15 05:30:37;;;;;;;6.88;5.30;;;20.80;48.70;;;;;;5024943;28;20037;-65
2022/11/15 05:33:04;;;;;;;6.95;5.95;;;20.70;48.70;;;;;;5020082;28;20471;-65
2022/11/15 05:35:39;;;;;;;8.18;6.15;;;20.80;48.70;;;;;;5018445;28;20507;-65
2022/11/15 05:38:07;;;;;;;7.78;5.75;;;20.70;48.50;;;;;;5017959;28;20045;-65
2022/11/15 05:40:35;;;;;;;7.38;5.65;;;20.70;48.30;;;;;;5017568;28;20057;-65
2022/11/15 05:43:04;;;;;;;6.18;5.35;;;20.70;48.20;;;;;;5025472;28;20042;-65
2022/11/15 05:45:33;;;;;;;8.73;6.30;;;20.80;48.20;;;;;;5027090;28;20079;-64
2022/11/15 05:48:03;;;;;;;8.53;6.03;;;20.70;48.00;;;;;;5022576;28;20398;-65
2022/11/15 05:50:31;;;;;;;8.68;6.30;;;20.70;48.00;;;;;;5029369;28;20402;-65
2022/11/15 05:52:58;;;;;;;8.52;6.65;;;20.70;48.00;;;;;;5028365;28;20534;-65
2022/11/15 05:55:31;;;;;;;7.38;5.75;;;20.70;47.90;;;;;;5028522;28;20049;-65
2022/11/15 05:57:59;;;;;;;7.60;6.20;;;20.80;47.90;;;;;;5010836;28;20045;-65
2022/11/15 06:00:26;;;;;;;8.55;5.95;;;20.70;47.90;;;;;;5028466;28;20052;-65
2022/11/15 06:02:53;;;;;;;8.32;6.07;;;20.70;47.80;;;;;;5027935;28;20045;-65
2022/11/15 06:05:20;;;;;;;6.97;6.18;;;20.70;47.80;;;;;;5025986;28;20099;-65
2022/11/15 06:07:47;;;;;;;8.38;6.07;;;20.70;47.80;;;;;;5027659;28;20049;-64
2022/11/15 06:10:14;;;;;;;7.93;6.00;;;20.70;47.80;;;;;;5028096;28;20045;-66
2022/11/15 06:12:41;;;;;;;7.72;6.13;;;20.70;47.80;;;;;;5009581;28;20049;-67
2022/11/15 06:15:09;;;;;;;8.10;5.82;;;20.60;47.80;;;;;;5029898;28;20064;-67
2022/11/15 06:17:36;;;;;;;6.72;5.93;;;20.60;47.80;;;;;;5028335;28;20418;-67
2022/11/15 06:20:04;;;;;;;8.48;6.38;;;20.60;48.00;;;;;;5027108;28;20053;-66
2022/11/15 06:22:31;;;;;;;7.55;6.00;;;20.60;48.00;;;;;;5020894;28;20049;-70
2022/11/15 06:24:58;;;;;;;8.13;6.57;;;20.70;48.00;;;;;;5008810;28;20045;-67
2022/11/15 06:27:31;;;;;;;7.28;6.00;;;20.70;48.00;;;;;;5022707;28;20080;-66
2022/11/15 06:29:58;;;;;;;8.52;6.38;;;20.70;48.10;;;;;;5023879;28;20046;-66
2022/11/15 06:32:25;;;;;;;7.13;6.00;;;20.70;48.00;;;;;;5021147;28;20081;-66
2022/11/15 06:34:52;;;;;;;8.52;6.57;;;20.70;48.10;;;;;;5026781;28;20053;-63
2022/11/15 06:37:19;;;;;;;9.07;6.80;;;20.70;48.30;;;;;;5024746;28;20050;-64
2022/11/15 06:39:46;;;;;;;8.02;5.55;;;20.80;48.30;;;;;;4979498;28;20049;-66
2022/11/15 06:42:14;;;;;;;6.68;5.85;;;20.80;48.40;;;;;;5021581;28;20054;-66
2022/11/15 06:44:41;;;;;;;9.65;7.18;;;20.80;48.50;;;;;;5017770;28;20544;-67
2022/11/15 06:47:08;;;;;;;8.57;6.53;;;20.80;48.40;;;;;;5015308;28;20054;-68
2022/11/15 06:49:35;;;;;;;13.68;7.18;;;20.80;48.30;;;;;;5012801;28;20060;-68
2022/11/15 06:52:02;;;;;;;10.20;6.57;;;20.90;48.30;;;;;;5017527;28;20049;-68
2022/11/15 06:54:30;;;;;;;11.07;6.70;;;20.80;48.10;;;;;;5010151;28;20049;-69
2022/11/15 06:56:57;;;;;;;9.40;7.05;;;20.80;47.90;;;;;;5019523;28;20053;-67
2022/11/15 06:59:24;;;;;;;11.48;8.27;;;20.90;48.00;;;;;;5017132;28;20053;-66
2022/11/15 07:01:51;;;;;;;12.70;8.77;;;20.90;48.20;;;;;;5020324;28;20053;-66
2022/11/15 07:04:19;;;;;;;12.27;8.32;;;21.00;48.30;;;;;;5023357;28;20487;-67
2022/11/15 07:06:47;;;;;;;12.57;8.35;;;21.00;48.40;;;;;;5021695;28;20495;-67
2022/11/15 07:09:15;;;;;;;10.95;7.70;;;21.00;48.40;;;;;;5023798;28;20052;-68
2022/11/15 07:11:42;;;;;;;13.05;8.02;;;21.10;48.40;;;;;;5020070;28;20052;-67
2022/11/15 07:14:09;;;;;;;11.32;7.95;;;21.10;48.40;;;;;;5023239;28;20740;-68
2022/11/15 07:16:36;;;;;;;13.02;8.80;;;21.20;48.60;;;;;;5022396;28;20491;-68
2022/11/15 07:19:04;;;;;;;13.73;9.52;;;21.20;48.50;;;;;;5020890;28;20052;-65
2022/11/15 07:21:32;;;;;;;11.18;8.75;;;21.30;48.50;;;;;;5015106;28;20050;-64
2022/11/15 07:23:59;;;;;;;13.60;8.75;;;21.30;48.40;;;;;;5017047;28;20041;-65
2022/11/15 07:26:26;;;;;;;14.38;8.07;;;21.30;48.30;;;;;;5013433;28;20087;-69
2022/11/15 07:28:54;;;;;;;13.10;9.15;;;21.30;48.30;;;;;;5016242;28;20132;-68
2022/11/15 07:31:22;;;;;;;14.90;8.82;;;21.40;48.30;;;;;;5017473;28;20046;-67
2022/11/15 07:33:49;;;;;;;12.45;8.95;;;21.40;48.30;;;;;;5026294;28;20053;-66
2022/11/15 07:36:16;;;;;;;11.63;8.95;;;21.40;48.30;;;;;;5023043;28;20041;-61
2022/11/15 07:38:43;;;;;;;10.40;7.75;;;21.50;48.50;;;;;;5018900;28;20049;-64
2022/11/15 07:41:11;;;;;;;11.15;8.18;;;21.50;48.70;;;;;;5021305;28;20061;-66
2022/11/15 07:43:38;;;;;;;11.07;8.10;;;21.60;48.90;;;;;;5005533;28;20060;-65
2022/11/15 07:46:09;;;;;;;13.57;7.80;;;21.60;49.10;;;;;;5018410;28;20080;-67
2022/11/15 07:48:39;;;;;;;12.10;8.27;;;21.60;49.10;;;;;;5019185;28;20054;-66
2022/11/15 07:51:14;;;;;;;11.50;8.48;;;21.70;49.00;;;;;;5019289;28;20060;-66
2022/11/15 07:53:42;;;;;;;;;;;21.70;48.90;;;;;;5022297;28;20619;-66
2022/11/15 07:56:10;;;;;;;12.25;8.45;;;21.70;48.70;;;;;;5015941;28;19929;-67
2022/11/15 07:58:37;;;;;;;11.32;8.45;;;21.80;48.60;;;;;;5016236;28;20045;-67
2022/11/15 08:01:06;;;;;;;11.63;8.20;;;21.80;48.30;;;;;;5020624;28;20073;-66
2022/11/15 08:03:34;;;;;;;15.70;8.68;;;21.80;48.10;;;;;;5018340;28;20079;-65
2022/11/15 08:06:02;;;;;;;12.50;8.73;;;21.80;47.90;;;;;;5017054;28;20614;-67
2022/11/15 08:08:29;;;;;;;13.00;8.95;;;21.80;47.90;;;;;;5017076;28;20053;-68
2022/11/15 08:11:00;;;;;;;13.52;8.50;;;21.80;48.50;;;;;;5020877;28;20072;-68
2022/11/15 08:13:27;;;;;;;12.32;8.60;;;21.80;48.00;;;;;;5020390;28;20384;-67
2022/11/15 08:15:59;;;;;;;13.73;8.40;;;21.80;47.80;;;;;;5024078;28;20064;-67
2022/11/15 08:18:27;;;;;;;13.15;8.38;;;21.80;47.70;;;;;;5023443;28;20048;-66
2022/11/15 08:20:58;;;;;;;13.10;9.02;;;21.80;47.50;;;;;;4998207;28;20574;-65
2022/11/15 08:23:25;;;;;;;11.20;8.50;;;21.80;47.50;;;;;;5017153;28;20057;-66
2022/11/15 08:25:52;;;;;;;12.65;8.73;;;21.80;47.40;;;;;;5016898;28;20056;-66
2022/11/15 08:28:19;;;;;;;13.02;8.55;;;21.80;47.60;;;;;;5011377;28;20050;-66
2022/11/15 08:30:46;;;;;;;12.35;9.05;;;21.80;47.60;;;;;;5001336;28;20060;-66
2022/11/15 08:33:14;;;;;;;14.25;9.23;;;21.70;47.70;;;;;;5011977;28;20056;-65
2022/11/15 08:35:42;;;;;;;12.40;8.52;;;21.80;47.90;;;;;;5015670;28;20137;-64
2022/11/15 08:38:09;;;;;;;12.02;9.32;;;21.80;48.00;;;;;;5015701;28;20148;-65
2022/11/15 08:40:37;;;;;;;14.90;9.35;;;21.80;47.90;;;;;;5018275;28;20539;-68
2022/11/15 08:43:04;;;;;;;12.50;9.02;;;21.80;47.90;;;;;;5015349;28;20048;-66
2022/11/15 08:45:35;;;;;;;15.07;9.23;;;21.80;48.00;;;;;;5021371;28;20048;-67
2022/11/15 08:48:03;;;;;;;14.18;9.40;;;21.80;48.10;;;;;;5021497;28;20100;-69
2022/11/15 08:50:30;;;;;;;12.50;9.48;;;21.90;48.00;;;;;;5020099;28;20045;-67
2022/11/15 08:52:57;;;;;;;16.17;9.20;;;21.80;47.70;;;;;;5021620;28;20045;-66
2022/11/15 08:55:24;;;;;;;14.77;9.68;;;21.90;47.70;;;;;;5023162;28;20048;-68
2022/11/15 08:57:51;;;;;;;13.02;9.90;;;21.90;47.60;;;;;;5021887;28;20060;-67
2022/11/15 09:00:19;;;;;;;15.73;10.05;;;21.90;47.40;;;;;;5014389;28;20440;-69
2022/11/15 09:02:47;;;;;;;28.15;9.63;;;21.90;47.40;;;;;;5014990;28;20099;-70
2022/11/15 09:05:15;;;;;;;15.45;9.98;;;21.90;47.60;;;;;;5018480;28;20503;-68
2022/11/15 09:07:43;;;;;;;14.82;9.48;;;21.90;47.70;;;;;;5019257;28;20669;-68
2022/11/15 09:10:10;;;;;;;14.63;10.32;;;22.00;47.70;;;;;;5017250;28;20087;-69
2022/11/15 09:12:37;;;;;;;13.32;9.50;;;22.00;47.60;;;;;;5017650;28;20049;-68
2022/11/15 09:15:06;;;;;;;15.75;9.25;;;22.00;47.50;;;;;;5011817;28;20060;-67
2022/11/15 09:17:33;;;;;;;14.70;10.45;;;22.00;47.30;;;;;;5016128;28;20103;-68
2022/11/15 09:20:00;;;;;;;16.25;10.32;;;22.00;47.20;;;;;;5003779;28;20064;-68
2022/11/15 09:22:28;;;;;;;13.23;9.35;;;22.00;47.20;;;;;;5016800;28;20511;-66
2022/11/15 09:24:55;;;;;;;13.27;8.75;;;22.00;47.30;;;;;;5015713;28;20049;-66
2022/11/15 09:27:22;;;;;;;13.43;10.00;;;22.00;47.50;;;;;;5015348;28;20050;-67
2022/11/15 09:29:49;;;;;;;14.25;10.27;;;22.00;47.50;;;;;;5022364;28;20088;-67
2022/11/15 09:32:16;;;;;;;12.82;9.68;;;22.00;47.70;;;;;;5021058;28;20049;-66
2022/11/15 09:34:44;;;;;;;15.13;10.77;;;22.00;47.80;;;;;;5017224;28;20380;-68
2022/11/15 09:37:12;;;;;;;15.95;10.13;;;22.10;47.90;;;;;;5015879;28;20050;-65
2022/11/15 09:39:40;;;;;;;15.95;10.57;;;22.10;47.90;;;;;;5015104;28;20045;-65
2022/11/15 09:42:32;;;;;;;15.95;9.70;;;22.10;47.90;;;;;;5018108;28;20045;-64
2022/11/15 09:45:26;;;;;;;14.45;9.50;;;22.20;48.00;;;;;;5013435;28;20067;-64
2022/11/15 09:48:23;;;;;;;16.40;10.38;;;22.20;48.00;;;;;;5016320;28;20152;-65
2022/11/15 09:50:53;;;;;;;14.45;10.38;;;22.30;47.90;;;;;;5018015;28;20057;-63
2022/11/15 09:53:48;;;;;;;13.80;9.70;;;22.30;47.90;;;;;;5020169;28;20049;-66
2022/11/15 09:56:40;;;;;;;13.15;9.45;;;22.30;48.30;;;;;;5016121;28;20060;-68
2022/11/15 09:59:22;;;;;;;14.82;9.93;;;22.40;47.80;;;;;;5014522;28;20056;-61
2022/11/15 10:02:24;;;;;;;12.88;9.52;;;22.40;47.90;;;;;;5018025;28;20499;-65
2022/11/15 10:04:53;;;;;;;14.70;9.50;;;22.50;47.90;;;;;;5019679;28;20060;-66
2022/11/15 10:07:46;;;;;;;18.20;10.15;;;22.50;48.00;;;;;;5015851;28;20056;-67
2022/11/15 10:10:25;;;;;;;14.95;9.93;;;22.50;47.80;;;;;;5022508;28;20045;-66
2022/11/15 10:12:53;;;;;;;14.73;10.40;;;22.50;47.60;;;;;;5001667;28;20411;-65
2022/11/15 10:15:22;;;;;;;13.45;9.73;;;22.50;47.60;;;;;;5020812;28;20403;-66
2022/11/15 10:18:18;;;;;;;15.63;10.52;;;22.60;47.50;;;;;;5016171;28;20054;-66
2022/11/15 10:20:49;;;;;;;14.40;10.02;;;22.60;47.40;;;;;;5018061;28;20045;-67
2022/11/15 10:23:22;;;;;;;14.48;10.85;;;22.60;48.10;;;;;;5017251;28;20049;-67
2022/11/15 10:26:01;;;;;;;19.42;11.65;;;22.70;47.50;;;;;;5019537;28;20054;-66
2022/11/15 10:28:32;;;;;;;15.00;11.23;;;22.70;47.50;;;;;;5017344;28;20049;-68
2022/11/15 10:31:01;;;;;;;17.10;10.88;;;22.70;47.50;;;;;;5020316;28;20056;-67
2022/11/15 10:33:36;;;;;;;15.00;10.38;;;22.80;47.50;;;;;;5017707;28;20256;-65
2022/11/15 10:36:20;;;;;;;16.40;11.05;;;22.70;47.30;;;;;;5001658;28;20045;-64
2022/11/15 10:38:56;;;;;;;16.75;10.60;;;22.80;47.30;;;;;;5011626;28;20053;-65
2022/11/15 10:41:34;;;;;;;14.55;10.25;;;22.80;47.30;;;;;;5016850;28;20080;-64
2022/11/15 10:44:24;;;;;;;18.25;10.70;;;22.80;47.30;;;;;;4997065;28;20056;-66
2022/11/15 10:47:21;;;;;;;14.90;10.90;;;22.80;47.80;;;;;;5014363;28;20056;-65
2022/11/15 10:49:59;;;;;;;15.63;10.13;;;22.80;47.10;;;;;;5019633;28;20457;-71
2022/11/15 10:52:28;;;;;;;15.60;10.27;;;22.80;47.10;;;;;;5000663;28;20053;-67
2022/11/15 10:55:23;;;;;;;15.93;10.35;;;22.80;47.30;;;;;;5017121;28;20079;-66
2022/11/15 10:57:54;;;;;;;17.23;11.32;;;22.80;47.00;;;;;;5021390;28;20088;-68
2022/11/15 11:00:31;;;;;;;14.75;10.50;;;22.80;46.90;;;;;;5025441;28;20380;-68
2022/11/15 11:03:02;;;;;;;17.02;11.23;;;22.80;46.80;;;;;;5019554;28;20483;-69
2022/11/15 11:05:36;;;;;;;15.00;10.63;;;22.80;46.70;;;;;;5018541;28;20060;-69
2022/11/15 11:08:28;;;;;;;14.73;11.02;;;22.80;46.70;;;;;;5006909;28;20049;-68
2022/11/15 11:11:00;;;;;;;14.95;9.93;;;22.80;46.70;;;;;;5003457;28;20112;-67
2022/11/15 11:13:40;;;;;;;17.25;11.30;;;22.80;46.70;;;;;;5024518;28;20513;-68
2022/11/15 11:16:30;;;;;;;14.50;10.23;;;22.80;46.50;;;;;;5020728;28;20072;-67
2022/11/15 11:19:38;;;;;;;17.02;11.23;;;22.80;46.30;;;;;;5025012;28;20128;-68
2022/11/15 11:22:45;;;;;;;15.27;10.90;;;22.80;46.30;;;;;;5019726;28;20065;-66
2022/11/15 11:25:30;;;;;;;15.10;10.82;;;22.80;46.10;;;;;;4990523;28;20053;-66
2022/11/15 11:28:13;;;;;;;17.30;11.23;;;22.80;46.10;;;;;;5021769;28;20440;-65
2022/11/15 11:31:11;;;;;;;18.58;10.90;;;22.80;46.00;;;;;;5019968;28;20049;-66
2022/11/15 11:34:06;;;;;;;16.92;10.52;;;22.80;45.90;;;;;;5022364;28;20057;-67
2022/11/15 11:36:48;;;;;;;16.30;11.27;;;22.80;45.90;;;;;;5024158;28;20059;-67
2022/11/15 11:39:46;;;;;;;15.20;11.25;;;22.80;46.00;;;;;;5018490;28;20050;-64
2022/11/15 11:42:37;;;;;;;13.68;10.32;;;22.80;46.00;;;;;;5019733;28;20054;-64
2022/11/15 11:45:27;;;;;;;16.70;11.57;;;22.90;46.20;;;;;;5016595;28;20423;-64
2022/11/15 11:48:29;;;;;;;13.73;10.40;;;22.90;46.10;;;;;;5019936;28;20406;-67
2022/11/15 11:51:08;;;;;;;16.35;10.63;;;22.90;46.10;;;;;;5020330;28;20490;-70
2022/11/15 11:53:42;;;;;;;17.00;11.98;;;23.00;46.20;;;;;;5021526;28;20049;-68
2022/11/15 11:56:24;;;;;;;15.65;11.00;;;23.00;46.10;;;;;;5027819;28;20051;-67
2022/11/15 11:58:54;;;;;;;15.43;10.77;;;22.90;46.20;;;;;;5020335;28;20128;-66
2022/11/15 12:01:37;;;;;;;18.48;10.68;;;22.90;46.20;;;;;;5021540;28;20050;-67
2022/11/15 12:04:34;;;;;;;18.98;11.77;;;22.90;46.30;;;;;;5017965;28;20053;-63
2022/11/15 12:07:13;;;;;;;16.67;10.50;;;22.90;46.30;;;;;;5014488;28;20088;-67
2022/11/15 12:10:14;;;;;;;15.13;11.27;;;22.90;46.40;;;;;;5018637;28;20102;-69
2022/11/15 12:12:55;;;;;;;17.73;11.43;;;22.90;46.30;;;;;;5016035;28;20132;-67
2022/11/15 12:15:24;;;;;;;;;;;22.90;46.60;;;;;;5018699;28;20053;-67
2022/11/15 12:17:54;;;;;;;16.33;11.07;;;23.00;46.90;;;;;;5013575;28;20024;-67
2022/11/15 12:20:27;;;;;;;15.88;11.27;;;23.00;46.80;;;;;;5019516;28;20060;-68
2022/11/15 12:23:23;;;;;;;19.33;12.32;;;23.10;46.60;;;;;;5004097;28;20052;-66
2022/11/15 12:26:00;;;;;;;17.55;11.75;;;23.20;46.40;;;;;;5022782;28;20054;-68
2022/11/15 12:28:40;;;;;;;14.43;10.95;;;23.30;46.30;;;;;;5021772;28;20779;-68
2022/11/15 12:31:41;;;;;;;14.90;10.82;;;23.30;46.40;;;;;;5021739;28;20049;-69
2022/11/15 12:34:35;;;;;;;13.63;10.10;;;23.30;46.10;;;;;;5021522;28;20057;-69
2022/11/15 12:37:42;;;;;;;17.45;12.32;;;23.30;46.50;;;;;;5005651;28;20046;-68
2022/11/15 12:40:49;;;;;;;16.00;11.13;;;23.20;46.50;;;;;;5020946;28;20051;-70
2022/11/15 12:43:38;;;;;;;17.67;11.68;;;23.20;46.60;;;;;;5015860;28;20184;-69
2022/11/15 12:46:19;;;;;;;16.95;11.55;;;23.20;46.60;;;;;;5015644;28;20081;-70
2022/11/15 12:48:51;;;;;;;17.17;11.35;;;23.10;46.40;;;;;;5019465;28;20188;-70
2022/11/15 12:51:22;;;;;;;16.17;11.27;;;23.10;46.20;;;;;;5025842;28;20045;-70
2022/11/15 12:53:49;;;;;;;16.27;11.63;;;23.00;46.20;;;;;;5023537;28;20061;-69
2022/11/15 12:56:21;;;;;;;16.17;11.48;;;23.10;46.20;;;;;;5026738;28;20056;-70
2022/11/15 12:58:58;;;;;;;17.15;11.10;;;23.00;46.20;;;;;;5015866;28;20061;-68
2022/11/15 13:01:55;;;;;;;16.67;12.02;;;23.00;46.20;;;;;;5022241;28;20075;-70
2022/11/15 13:04:26;;;;;;;14.70;10.90;;;23.00;46.20;;;;;;5017617;28;20064;-69
2022/11/15 13:07:05;;;;;;;15.05;10.98;;;23.00;46.40;;;;;;5004777;28;20045;-68
2022/11/15 13:09:53;;;;;;;16.20;11.23;;;22.90;46.40;;;;;;5015540;28;20418;-68
2022/11/15 13:12:59;;;;;;;15.55;10.38;;;22.90;46.30;;;;;;5001911;28;20052;-66
2022/11/15 13:15:36;;;;;;;12.40;9.70;;;22.90;46.40;;;;;;5017281;28;20176;-67
2022/11/15 13:18:32;;;;;;;16.30;10.65;;;22.90;46.80;;;;;;5025353;28;20058;-67
2022/11/15 13:22:50;;;;;;;14.98;10.38;;;22.90;46.80;;;;;;5018748;28;20552;-67
2022/11/15 13:23:55;;;;;;;15.15;10.65;;;22.90;46.80;;;;;;5020788;28;20546;-69
2022/11/15 13:26:22;;;;;;;17.20;11.50;;;22.90;47.50;;;;;;5017747;28;20593;-68
2022/11/15 13:28:54;;;;;;;14.93;10.77;;;22.80;46.90;;;;;;5018231;28;20062;-71